createdAt,value
2018-09-18T00:01:27.924Z,22.70
2018-09-18T00:03:56.251Z,22.80
2018-09-18T00:06:24.602Z,22.70
2018-09-18T00:08:52.954Z,22.70
2018-09-18T00:11:21.304Z,22.70
2018-09-18T00:13:49.654Z,22.70
2018-09-18T00:16:18.047Z,22.70
2018-09-18T00:18:46.439Z,22.70
2018-09-18T00:21:26.277Z,22.70
2018-09-18T00:23:54.627Z,22.70
2018-09-18T00:26:22.958Z,22.70
2018-09-18T00:28:51.329Z,22.70
2018-09-18T00:31:19.706Z,22.70
2018-09-18T00:33:48.075Z,22.70
2018-09-18T00:36:16.438Z,22.70
2018-09-18T00:38:44.820Z,22.70
2018-09-18T00:41:13.189Z,22.70
2018-09-18T00:43:41.543Z,22.70
2018-09-18T00:46:09.876Z,22.70
2018-09-18T00:48:38.220Z,22.70
2018-09-18T00:51:06.589Z,22.70
2018-09-18T00:53:34.967Z,22.60
2018-09-18T00:56:03.346Z,22.70
2018-09-18T00:58:31.685Z,22.70
2018-09-18T01:01:00.019Z,22.70
2018-09-18T01:03:28.370Z,22.70
2018-09-18T01:05:56.767Z,22.70
2018-09-18T01:08:25.110Z,22.60
2018-09-18T01:10:53.471Z,22.60
2018-09-18T01:13:21.815Z,22.60
2018-09-18T01:15:50.166Z,22.60
2018-09-18T01:18:18.523Z,22.60
2018-09-18T01:20:46.887Z,22.60
2018-09-18T01:23:15.276Z,22.60
2018-09-18T01:25:43.659Z,22.60
2018-09-18T01:28:12.070Z,22.60
2018-09-18T01:30:40.525Z,22.60
2018-09-18T01:33:08.874Z,22.60
2018-09-18T01:35:37.243Z,22.60
2018-09-18T01:38:05.610Z,22.60
2018-09-18T01:40:33.963Z,22.60
2018-09-18T01:43:02.427Z,22.60
2018-09-18T01:45:30.787Z,22.60
2018-09-18T01:47:59.156Z,22.60
2018-09-18T01:50:27.519Z,22.60
2018-09-18T01:52:55.888Z,22.60
2018-09-18T01:55:24.268Z,22.60
2018-09-18T01:57:52.619Z,22.60
2018-09-18T02:00:20.968Z,22.60
2018-09-18T02:02:49.313Z,22.60
2018-09-18T02:05:17.663Z,22.50
2018-09-18T02:07:46.027Z,22.60
2018-09-18T02:10:14.375Z,22.50
2018-09-18T02:12:42.770Z,22.60
2018-09-18T02:15:11.134Z,22.50
2018-09-18T02:17:39.486Z,22.60
2018-09-18T02:20:07.866Z,22.50
2018-09-18T02:22:36.326Z,22.50
2018-09-18T02:25:04.705Z,22.60
2018-09-18T02:27:33.084Z,22.50
2018-09-18T02:30:01.439Z,22.50
2018-09-18T02:32:29.826Z,22.50
2018-09-18T02:34:58.271Z,22.60
2018-09-18T02:37:26.664Z,22.50
2018-09-18T02:39:55.016Z,22.50
2018-09-18T02:42:23.419Z,22.50
2018-09-18T02:44:52.118Z,22.50
2018-09-18T02:47:20.591Z,22.50
2018-09-18T02:49:49.336Z,22.50
2018-09-18T02:52:17.847Z,22.50
2018-09-18T02:54:46.204Z,22.50
2018-09-18T02:57:14.748Z,22.50
2018-09-18T02:59:43.116Z,22.50
2018-09-18T03:02:11.479Z,22.50
2018-09-18T03:04:39.960Z,22.50
2018-09-18T03:07:08.357Z,22.50
2018-09-18T03:09:36.724Z,22.50
2018-09-18T03:12:05.097Z,22.50
2018-09-18T03:14:33.538Z,22.50
2018-09-18T03:17:01.898Z,22.50
2018-09-18T03:19:30.253Z,22.50
2018-09-18T03:21:58.655Z,22.50
2018-09-18T03:24:27.031Z,22.50
2018-09-18T03:26:55.426Z,22.50
2018-09-18T03:29:23.824Z,22.50
2018-09-18T03:31:52.211Z,22.50
2018-09-18T03:34:20.570Z,22.50
2018-09-18T03:36:48.979Z,22.50
2018-09-18T03:39:17.368Z,22.50
2018-09-18T03:41:45.770Z,22.50
2018-09-18T03:44:14.134Z,22.50
2018-09-18T03:46:42.663Z,22.40
2018-09-18T03:49:11.032Z,22.40
2018-09-18T03:51:39.408Z,22.40
2018-09-18T03:54:07.794Z,22.40
2018-09-18T03:56:36.168Z,22.40
2018-09-18T03:59:04.562Z,22.40
2018-09-18T04:01:32.962Z,22.40
2018-09-18T04:04:01.334Z,22.40
2018-09-18T04:06:29.691Z,22.40
2018-09-18T04:08:58.223Z,22.40
2018-09-18T04:11:26.605Z,22.40
2018-09-18T04:13:55.000Z,22.40
2018-09-18T04:16:23.381Z,22.40
2018-09-18T04:18:51.792Z,22.40
2018-09-18T04:21:20.155Z,22.40
2018-09-18T04:23:48.520Z,22.40
2018-09-18T04:26:17.330Z,22.40
2018-09-18T04:28:45.891Z,22.40
2018-09-18T04:31:14.294Z,22.40
2018-09-18T04:33:42.686Z,22.40
2018-09-18T04:36:11.132Z,22.40
2018-09-18T04:38:39.534Z,22.40
2018-09-18T04:41:07.912Z,22.40
2018-09-18T04:43:36.308Z,22.30
2018-09-18T04:46:04.720Z,22.30
2018-09-18T04:48:33.067Z,22.40
2018-09-18T04:51:01.472Z,22.30
2018-09-18T04:53:29.836Z,22.30
2018-09-18T04:55:58.224Z,22.40
2018-09-18T04:58:26.599Z,22.30
2018-09-18T05:00:55.300Z,22.40
2018-09-18T05:03:23.721Z,22.30
2018-09-18T05:05:52.167Z,22.30
2018-09-18T05:08:20.693Z,22.30
2018-09-18T05:10:50.234Z,22.30
2018-09-18T05:13:30.598Z,22.30
2018-09-18T05:15:59.959Z,22.30
2018-09-18T05:18:28.386Z,22.30
2018-09-18T05:20:56.811Z,22.30
2018-09-18T05:23:25.251Z,22.30
2018-09-18T05:25:53.698Z,22.30
2018-09-18T05:28:22.115Z,22.30
2018-09-18T05:30:50.539Z,22.30
2018-09-18T05:33:18.951Z,22.30
2018-09-18T05:35:47.401Z,22.30
2018-09-18T05:38:15.884Z,22.30
2018-09-18T05:40:44.462Z,22.30
2018-09-18T05:43:13.089Z,22.30
2018-09-18T05:45:41.521Z,22.40
2018-09-18T05:48:12.179Z,22.40
2018-09-18T05:50:40.958Z,22.40
2018-09-18T05:53:09.936Z,22.40
2018-09-18T05:55:38.373Z,22.40
2018-09-18T05:58:06.841Z,22.50
2018-09-18T06:00:35.314Z,22.50
2018-09-18T06:03:03.722Z,22.50
2018-09-18T06:05:32.145Z,22.50
2018-09-18T06:08:00.551Z,22.60
2018-09-18T06:10:29.021Z,22.60
2018-09-18T06:12:57.442Z,22.60
2018-09-18T06:15:25.854Z,22.60
2018-09-18T06:17:54.283Z,22.70
2018-09-18T06:20:22.710Z,22.70
2018-09-18T06:22:51.140Z,22.80
2018-09-18T06:25:19.542Z,22.80
2018-09-18T06:27:47.962Z,22.80
2018-09-18T06:30:29.540Z,22.90
2018-09-18T06:32:57.922Z,22.90
2018-09-18T06:35:26.401Z,23.00
2018-09-18T06:37:54.815Z,23.00
2018-09-18T06:40:23.254Z,23.00
2018-09-18T06:42:51.692Z,23.10
2018-09-18T06:45:20.082Z,23.10
2018-09-18T06:47:48.514Z,23.10
2018-09-18T06:50:16.929Z,23.10
2018-09-18T06:52:45.363Z,23.10
2018-09-18T06:55:13.784Z,23.20
2018-09-18T06:57:42.216Z,23.20
2018-09-18T07:00:10.599Z,23.20
2018-09-18T07:02:38.991Z,23.20
2018-09-18T07:05:07.401Z,23.20
2018-09-18T07:07:35.804Z,23.20
2018-09-18T07:10:04.275Z,23.20
2018-09-18T07:12:32.759Z,23.30
2018-09-18T07:15:01.152Z,23.30
2018-09-18T07:17:29.543Z,23.30
2018-09-18T07:19:57.977Z,23.30
2018-09-18T07:22:26.403Z,23.30
2018-09-18T07:24:54.892Z,23.30
2018-09-18T07:27:23.217Z,23.30
2018-09-18T07:29:51.603Z,23.30
2018-09-18T07:32:19.978Z,23.30
2018-09-18T07:34:48.374Z,23.30
2018-09-18T07:37:16.769Z,23.30
2018-09-18T07:39:45.187Z,23.40
2018-09-18T07:42:13.602Z,23.30
2018-09-18T07:44:42.003Z,23.30
2018-09-18T07:47:10.406Z,23.40
2018-09-18T07:49:38.822Z,23.40
2018-09-18T07:52:07.251Z,23.40
2018-09-18T07:54:35.692Z,23.40
2018-09-18T07:57:04.130Z,23.40
2018-09-18T07:59:32.550Z,23.40
2018-09-18T08:02:01.023Z,23.40
2018-09-18T08:04:29.439Z,23.50
2018-09-18T08:06:57.855Z,23.50
2018-09-18T08:09:26.259Z,23.50
2018-09-18T08:11:54.669Z,23.50
2018-09-18T08:14:23.087Z,23.50
2018-09-18T08:16:51.454Z,23.50
2018-09-18T08:19:19.915Z,23.50
2018-09-18T08:21:48.310Z,23.50
2018-09-18T08:24:16.744Z,23.60
2018-09-18T08:26:45.143Z,23.60
2018-09-18T08:29:13.660Z,23.60
2018-09-18T08:31:42.438Z,23.60
2018-09-18T08:34:10.912Z,23.60
2018-09-18T08:36:39.317Z,23.60
2018-09-18T08:39:08.835Z,23.60
2018-09-18T08:41:37.597Z,23.60
2018-09-18T08:44:05.994Z,23.70
2018-09-18T08:46:34.566Z,23.70
2018-09-18T08:49:03.120Z,23.70
2018-09-18T08:51:31.576Z,23.70
2018-09-18T08:54:00.047Z,23.70
2018-09-18T08:56:28.563Z,23.70
2018-09-18T08:58:57.044Z,23.70
2018-09-18T09:01:25.552Z,23.70
2018-09-18T09:03:54.033Z,23.70
2018-09-18T09:06:22.582Z,23.70
2018-09-18T09:08:51.059Z,23.80
2018-09-18T09:11:19.357Z,23.80
2018-09-18T09:13:47.790Z,23.80
2018-09-18T09:16:16.195Z,23.80
2018-09-18T09:18:44.643Z,23.80
2018-09-18T09:21:13.123Z,23.80
2018-09-18T09:23:41.496Z,23.80
2018-09-18T09:26:10.003Z,23.80
2018-09-18T09:28:38.471Z,23.80
2018-09-18T09:31:06.903Z,23.80
2018-09-18T09:33:35.359Z,23.80
2018-09-18T09:36:03.757Z,23.80
2018-09-18T09:38:32.174Z,23.80
2018-09-18T09:41:00.637Z,23.80
2018-09-18T09:43:29.065Z,23.80
2018-09-18T09:45:57.447Z,23.80
2018-09-18T09:48:25.825Z,23.80
2018-09-18T09:50:54.202Z,23.90
2018-09-18T09:53:22.611Z,23.80
2018-09-18T09:55:51.025Z,23.90
2018-09-18T09:58:19.459Z,23.90
2018-09-18T10:00:53.181Z,23.90
2018-09-18T10:03:21.569Z,23.90
2018-09-18T10:05:50.002Z,23.90
2018-09-18T10:08:18.406Z,23.90
2018-09-18T10:10:47.038Z,23.90
2018-09-18T10:13:15.275Z,23.90
2018-09-18T10:15:43.768Z,23.90
2018-09-18T10:18:12.298Z,23.90
2018-09-18T10:20:40.732Z,23.90
2018-09-18T10:23:09.233Z,23.90
2018-09-18T10:25:37.721Z,23.90
2018-09-18T10:28:06.380Z,23.90
2018-09-18T10:30:34.794Z,23.90
2018-09-18T10:33:03.306Z,23.90
2018-09-18T10:35:31.694Z,23.90
2018-09-18T10:38:00.107Z,23.90
2018-09-18T10:40:28.613Z,23.90
2018-09-18T10:42:57.142Z,23.90
2018-09-18T10:45:25.564Z,23.90
2018-09-18T10:47:54.033Z,23.90
2018-09-18T10:50:22.452Z,23.90
2018-09-18T10:52:50.941Z,23.90
2018-09-18T10:55:19.454Z,23.90
2018-09-18T10:57:48.060Z,23.90
2018-09-18T11:00:16.542Z,23.90
2018-09-18T11:02:45.001Z,23.90
2018-09-18T11:05:13.613Z,24.00
2018-09-18T11:07:42.116Z,24.00
2018-09-18T11:10:10.559Z,24.00
2018-09-18T11:12:38.977Z,24.00
2018-09-18T11:15:07.314Z,24.00
2018-09-18T11:17:35.779Z,24.00
2018-09-18T11:20:04.427Z,24.00
2018-09-18T11:22:32.792Z,24.00
2018-09-18T11:25:01.310Z,24.00
2018-09-18T11:27:29.643Z,24.00
2018-09-18T11:29:58.052Z,24.00
2018-09-18T11:32:26.463Z,24.00
2018-09-18T11:34:54.865Z,24.00
2018-09-18T11:37:23.241Z,24.00
2018-09-18T11:39:51.657Z,24.00
2018-09-18T11:42:20.051Z,24.00
2018-09-18T11:44:48.481Z,24.10
2018-09-18T11:47:16.925Z,24.10
2018-09-18T11:49:45.303Z,24.00
2018-09-18T11:52:13.723Z,24.10
2018-09-18T11:54:42.126Z,24.10
2018-09-18T11:57:10.613Z,24.10
2018-09-18T11:59:39.010Z,24.10
2018-09-18T12:02:07.413Z,24.10
2018-09-18T12:04:35.854Z,24.10
2018-09-18T12:07:04.241Z,24.10
2018-09-18T12:09:32.667Z,24.10
2018-09-18T12:12:01.091Z,24.10
2018-09-18T12:14:30.147Z,24.10
2018-09-18T12:17:15.097Z,24.10
2018-09-18T12:20:02.807Z,24.10
2018-09-18T12:22:31.384Z,24.10
2018-09-18T12:24:59.791Z,24.10
2018-09-18T12:27:28.211Z,24.10
2018-09-18T12:29:56.594Z,24.10
2018-09-18T12:32:24.997Z,24.10
2018-09-18T12:34:53.433Z,24.10
2018-09-18T12:37:21.829Z,24.10
2018-09-18T12:39:50.220Z,24.10
2018-09-18T12:42:18.726Z,24.20
2018-09-18T12:44:47.115Z,24.20
2018-09-18T12:47:22.846Z,24.20
2018-09-18T12:49:51.525Z,24.20
2018-09-18T12:52:19.823Z,24.20
2018-09-18T12:54:48.265Z,24.20
2018-09-18T12:57:16.923Z,24.20
2018-09-18T12:59:45.226Z,24.20
2018-09-18T13:02:13.647Z,24.20
2018-09-18T13:04:42.080Z,24.20
2018-09-18T13:07:10.531Z,24.20
2018-09-18T13:09:39.021Z,24.20
2018-09-18T13:12:07.549Z,24.20
2018-09-18T13:14:35.972Z,24.20
2018-09-18T13:17:04.391Z,24.20
2018-09-18T13:19:32.831Z,24.20
2018-09-18T13:22:01.289Z,24.20
2018-09-18T13:24:29.743Z,24.20
2018-09-18T13:26:58.289Z,24.20
2018-09-18T13:29:30.826Z,24.20
2018-09-18T13:32:04.014Z,24.20
2018-09-18T13:34:39.737Z,24.20
2018-09-18T13:37:08.340Z,24.20
2018-09-18T13:39:39.003Z,24.20
2018-09-18T13:42:08.663Z,24.20
2018-09-18T13:44:37.466Z,24.20
2018-09-18T13:47:06.248Z,24.20
2018-09-18T13:49:34.750Z,24.20
2018-09-18T13:52:04.352Z,24.20
2018-09-18T13:54:33.070Z,24.20
2018-09-18T13:57:01.602Z,24.20
2018-09-18T13:59:30.108Z,24.20
2018-09-18T14:02:06.939Z,24.20
2018-09-18T14:04:35.548Z,24.20
2018-09-18T14:07:04.239Z,24.20
2018-09-18T14:09:34.103Z,24.20
2018-09-18T14:12:03.241Z,24.20
2018-09-18T14:14:34.148Z,24.20
2018-09-18T14:17:02.945Z,24.20
2018-09-18T14:19:32.166Z,24.20
2018-09-18T14:22:00.808Z,24.10
2018-09-18T14:24:29.451Z,24.10
2018-09-18T14:26:58.200Z,24.10
2018-09-18T14:29:26.863Z,24.10
2018-09-18T14:31:55.712Z,24.10
2018-09-18T14:34:24.365Z,24.20
2018-09-18T14:36:52.828Z,24.10
2018-09-18T14:39:21.427Z,24.10
2018-09-18T14:41:54.587Z,24.10
2018-09-18T14:44:23.115Z,24.10
2018-09-18T14:46:51.736Z,24.10
2018-09-18T14:49:20.863Z,24.10
2018-09-18T14:51:49.661Z,24.10
2018-09-18T14:54:40.083Z,24.10
2018-09-18T14:57:10.518Z,24.10
2018-09-18T14:59:39.055Z,24.00
2018-09-18T15:02:07.458Z,24.10
2018-09-18T15:04:35.845Z,24.00
2018-09-18T15:07:04.401Z,24.00
2018-09-18T15:09:32.973Z,24.00
2018-09-18T15:12:01.523Z,24.00
2018-09-18T15:14:29.989Z,24.00
2018-09-18T15:16:58.349Z,24.00
2018-09-18T15:19:26.777Z,24.00
2018-09-18T15:21:58.626Z,24.00
2018-09-18T15:24:27.253Z,24.00
2018-09-18T15:26:55.677Z,24.00
2018-09-18T15:29:24.673Z,24.00
2018-09-18T15:31:53.241Z,23.90
2018-09-18T15:34:22.554Z,23.90
2018-09-18T15:36:51.370Z,23.90
2018-09-18T15:39:20.165Z,24.00
2018-09-18T15:41:48.586Z,23.90
2018-09-18T15:44:17.081Z,23.90
2018-09-18T15:46:45.570Z,23.90
2018-09-18T15:49:13.943Z,23.90
2018-09-18T15:51:42.455Z,23.90
2018-09-18T15:54:10.832Z,23.90
2018-09-18T15:56:39.197Z,23.90
2018-09-18T15:59:07.715Z,23.90
2018-09-18T16:01:36.118Z,23.90
2018-09-18T16:04:04.516Z,23.90
2018-09-18T16:06:32.911Z,23.90
2018-09-18T16:09:01.329Z,23.90
2018-09-18T16:11:29.723Z,23.90
2018-09-18T16:13:58.121Z,23.90
2018-09-18T16:16:26.575Z,23.90
2018-09-18T16:18:54.954Z,23.90
2018-09-18T16:21:23.404Z,23.80
2018-09-18T16:23:51.800Z,23.90
2018-09-18T16:26:20.197Z,23.80
2018-09-18T16:28:48.760Z,23.80
2018-09-18T16:31:17.150Z,23.80
2018-09-18T16:33:45.628Z,23.80
2018-09-18T16:36:14.077Z,23.80
2018-09-18T16:38:42.485Z,23.80
2018-09-18T16:41:10.869Z,23.80
2018-09-18T16:43:39.256Z,23.80
2018-09-18T16:46:07.863Z,23.80
2018-09-18T16:48:36.324Z,23.80
2018-09-18T16:51:04.661Z,23.80
2018-09-18T16:53:33.049Z,23.80
2018-09-18T16:56:02.571Z,23.80
2018-09-18T16:58:31.078Z,23.80
2018-09-18T17:00:59.437Z,23.80
2018-09-18T17:03:27.828Z,23.80
2018-09-18T17:05:56.293Z,23.80
2018-09-18T17:08:24.909Z,23.80
2018-09-18T17:10:53.321Z,23.80
2018-09-18T17:13:21.776Z,23.80
2018-09-18T17:16:08.244Z,23.80
2018-09-18T17:18:37.515Z,23.70
2018-09-18T17:21:06.506Z,23.70
2018-09-18T17:23:35.747Z,23.70
2018-09-18T17:26:13.633Z,23.80
2018-09-18T17:28:48.752Z,23.70
2018-09-18T17:31:17.190Z,23.70
2018-09-18T17:33:46.379Z,23.70
2018-09-18T17:36:16.436Z,23.70
2018-09-18T17:38:49.157Z,23.70
2018-09-18T17:41:19.204Z,23.70
2018-09-18T17:43:53.792Z,23.70
2018-09-18T17:46:22.874Z,23.70
2018-09-18T17:48:52.726Z,23.70
2018-09-18T17:51:21.860Z,23.70
2018-09-18T17:53:50.878Z,23.70
2018-09-18T17:56:20.588Z,23.70
2018-09-18T17:58:52.333Z,23.70
2018-09-18T18:01:21.533Z,23.70
2018-09-18T18:03:50.862Z,23.70
2018-09-18T18:06:19.815Z,23.70
2018-09-18T18:08:49.078Z,23.70
2018-09-18T18:11:18.162Z,23.60
2018-09-18T18:14:05.838Z,23.70
2018-09-18T18:16:34.725Z,23.70
2018-09-18T18:19:08.519Z,23.60
2018-09-18T18:21:41.717Z,23.60
2018-09-18T18:24:10.685Z,23.60
2018-09-18T18:26:39.618Z,23.60
2018-09-18T18:29:08.730Z,23.60
2018-09-18T18:31:37.501Z,23.60
2018-09-18T18:34:06.093Z,23.60
2018-09-18T18:36:34.556Z,23.60
2018-09-18T18:39:03.210Z,23.60
2018-09-18T18:41:31.726Z,23.60
2018-09-18T18:44:00.290Z,23.60
2018-09-18T18:46:28.879Z,23.60
2018-09-18T18:48:57.593Z,23.60
2018-09-18T18:51:26.200Z,23.60
2018-09-18T18:53:54.640Z,23.60
2018-09-18T18:56:23.082Z,23.60
2018-09-18T18:58:51.545Z,23.60
2018-09-18T19:01:19.975Z,23.60
2018-09-18T19:03:48.458Z,23.60
2018-09-18T19:06:17.143Z,23.60
2018-09-18T19:08:45.722Z,23.60
2018-09-18T19:11:14.178Z,23.60
2018-09-18T19:13:42.609Z,23.50
2018-09-18T19:16:11.078Z,23.50
2018-09-18T19:18:39.560Z,23.50
2018-09-18T19:21:07.982Z,23.60
2018-09-18T19:23:36.488Z,23.50
2018-09-18T19:26:04.857Z,23.50
2018-09-18T19:28:33.377Z,23.50
2018-09-18T19:31:01.797Z,23.50
2018-09-18T19:33:30.255Z,23.50
2018-09-18T19:35:58.703Z,23.50
2018-09-18T19:38:27.113Z,23.50
2018-09-18T19:40:55.550Z,23.50
2018-09-18T19:43:23.974Z,23.50
2018-09-18T19:45:52.399Z,23.50
2018-09-18T19:48:20.882Z,23.50
2018-09-18T19:50:49.318Z,23.50
2018-09-18T19:53:17.737Z,23.50
2018-09-18T19:55:46.166Z,23.50
2018-09-18T19:58:14.591Z,23.50
2018-09-18T20:00:43.064Z,23.50
2018-09-18T20:03:11.543Z,23.50
2018-09-18T20:05:39.979Z,23.50
2018-09-18T20:08:08.441Z,23.50
2018-09-18T20:10:36.838Z,23.50
2018-09-18T20:13:05.315Z,23.40
2018-09-18T20:15:33.754Z,23.50
2018-09-18T20:18:02.385Z,23.40
2018-09-18T20:20:30.869Z,23.40
2018-09-18T20:22:59.299Z,23.50
2018-09-18T20:25:27.729Z,23.40
2018-09-18T20:27:56.143Z,23.40
2018-09-18T20:30:24.559Z,23.40
2018-09-18T20:32:53.099Z,23.40
2018-09-18T20:35:21.501Z,23.40
2018-09-18T20:37:49.991Z,23.40
2018-09-18T20:40:18.412Z,23.40
2018-09-18T20:42:46.840Z,23.40
2018-09-18T20:45:15.252Z,23.40
2018-09-18T20:47:43.668Z,23.40
2018-09-18T20:50:12.102Z,23.40
2018-09-18T20:52:40.534Z,23.40
2018-09-18T20:55:08.957Z,23.40
2018-09-18T20:57:37.385Z,23.40
2018-09-18T21:00:05.816Z,23.40
2018-09-18T21:02:34.716Z,23.40
2018-09-18T21:05:03.621Z,23.40
2018-09-18T21:07:32.505Z,23.40
2018-09-18T21:10:01.320Z,23.40
2018-09-18T21:12:30.329Z,23.40
2018-09-18T21:14:58.784Z,23.40
2018-09-18T21:17:27.231Z,23.40
2018-09-18T21:19:55.875Z,23.40
2018-09-18T21:22:24.305Z,23.40
2018-09-18T21:25:23.479Z,23.40
2018-09-18T21:27:51.899Z,23.40
2018-09-18T21:30:20.379Z,23.40
2018-09-18T21:32:48.846Z,23.40
2018-09-18T21:35:17.363Z,23.40
2018-09-18T21:37:45.821Z,23.40
2018-09-18T21:40:14.268Z,23.30
2018-09-18T21:42:42.714Z,23.30
2018-09-18T21:45:11.139Z,23.30
2018-09-18T21:47:39.570Z,23.30
2018-09-18T21:50:08.104Z,23.30
2018-09-18T21:52:36.573Z,23.30
2018-09-18T21:55:05.010Z,23.30
2018-09-18T21:57:33.439Z,23.30
2018-09-18T22:00:01.914Z,23.30
2018-09-18T22:02:30.341Z,23.30
2018-09-18T22:04:58.760Z,23.30
2018-09-18T22:07:27.199Z,23.30
2018-09-18T22:09:55.929Z,23.30
2018-09-18T22:12:24.402Z,23.30
2018-09-18T22:14:52.820Z,23.30
2018-09-18T22:17:21.256Z,23.30
2018-09-18T22:19:50.516Z,23.30
2018-09-18T22:22:19.005Z,23.30
2018-09-18T22:24:47.405Z,23.30
2018-09-18T22:27:15.837Z,23.30
2018-09-18T22:29:44.284Z,23.30
2018-09-18T22:32:12.734Z,23.30
2018-09-18T22:34:41.147Z,23.30
2018-09-18T22:37:09.594Z,23.30
2018-09-18T22:39:38.033Z,23.30
2018-09-18T22:42:06.657Z,23.30
2018-09-18T22:44:35.089Z,23.30
2018-09-18T22:47:03.671Z,23.30
2018-09-18T22:49:32.102Z,23.30
2018-09-18T22:52:00.528Z,23.30
2018-09-18T22:54:28.964Z,23.30
2018-09-18T22:56:57.404Z,23.30
2018-09-18T22:59:25.825Z,23.30
2018-09-18T23:01:54.270Z,23.30
2018-09-18T23:04:22.687Z,23.30
2018-09-18T23:06:51.173Z,23.30
2018-09-18T23:09:19.672Z,23.30
2018-09-18T23:11:48.051Z,23.20
2018-09-18T23:14:16.522Z,23.30
2018-09-18T23:16:44.926Z,23.30
2018-09-18T23:19:13.345Z,23.30
2018-09-18T23:21:41.713Z,23.20
2018-09-18T23:24:10.291Z,23.20
2018-09-18T23:26:39.216Z,23.30
2018-09-18T23:29:08.092Z,23.20
2018-09-18T23:31:37.000Z,23.20
2018-09-18T23:34:05.409Z,23.20
2018-09-18T23:36:33.819Z,23.30
2018-09-18T23:39:02.211Z,23.20
2018-09-18T23:41:30.678Z,23.20
2018-09-18T23:43:59.057Z,23.20
2018-09-18T23:46:27.443Z,23.20
2018-09-18T23:48:55.837Z,23.20
2018-09-18T23:51:24.250Z,23.20
2018-09-18T23:53:52.625Z,23.20
2018-09-18T23:56:20.998Z,23.20
2018-09-18T23:58:49.366Z,23.20
